sensor_id;sensor_type;location;lat;lon;timestamp;pressure;altitude;pressure_sealevel;temperature;humidity
5877;BME280;2964;42.144;24.730;2023-11-19T00:00:05;143348.81;;;7.03;74.51
5877;BME280;2964;42.144;24.730;2023-11-19T00:02:36;143388.91;;;7.20;74.67
5877;BME280;2964;42.144;24.730;2023-11-19T00:05:03;143371.38;;;7.12;75.03
5877;BME280;2964;42.144;24.730;2023-11-19T00:07:31;143447.78;;;7.44;74.01
5877;BME280;2964;42.144;24.730;2023-11-19T00:09:59;143396.38;;;7.23;74.07
5877;BME280;2964;42.144;24.730;2023-11-19T00:12:35;143426.47;;;7.35;74.82
5877;BME280;2964;42.144;24.730;2023-11-19T00:15:02;143416.47;;;7.31;75.02
5877;BME280;2964;42.144;24.730;2023-11-19T00:17:30;143421.47;;;7.33;75.03
5877;BME280;2964;42.144;24.730;2023-11-19T00:19:57;143412.69;;;7.29;75.33
5877;BME280;2964;42.144;24.730;2023-11-19T00:22:24;143420.22;;;7.32;75.72
5877;BME280;2964;42.144;24.730;2023-11-19T00:24:51;143427.72;;;7.35;75.43
5877;BME280;2964;42.144;24.730;2023-11-19T00:27:19;143449.00;;;7.44;74.86
5877;BME280;2964;42.144;24.730;2023-11-19T00:29:46;143420.22;;;7.32;75.31
5877;BME280;2964;42.144;24.730;2023-11-19T00:32:12;143415.22;;;7.30;75.69
5877;BME280;2964;42.144;24.730;2023-11-19T00:34:39;143410.16;;;7.28;75.24
5877;BME280;2964;42.144;24.730;2023-11-19T00:37:06;143421.47;;;7.33;74.97
5877;BME280;2964;42.144;24.730;2023-11-19T00:39:33;143421.47;;;7.33;75.21
5877;BME280;2964;42.144;24.730;2023-11-19T00:41:59;143427.72;;;7.35;75.24
5877;BME280;2964;42.144;24.730;2023-11-19T00:44:28;143425.22;;;7.34;75.11
5877;BME280;2964;42.144;24.730;2023-11-19T00:46:54;143449.00;;;7.44;74.66
5877;BME280;2964;42.144;24.730;2023-11-19T00:49:21;143423.94;;;7.34;74.67
5877;BME280;2964;42.144;24.730;2023-11-19T00:51:48;143406.44;;;7.27;75.17
5877;BME280;2964;42.144;24.730;2023-11-19T00:54:15;143431.47;;;7.37;74.75
5877;BME280;2964;42.144;24.730;2023-11-19T00:56:42;143437.75;;;7.40;74.41
5877;BME280;2964;42.144;24.730;2023-11-19T00:59:08;143408.94;;;7.28;75.05
5877;BME280;2964;42.144;24.730;2023-11-19T01:01:36;143385.13;;;7.18;75.91
5877;BME280;2964;42.144;24.730;2023-11-19T01:04:03;143380.13;;;7.16;75.65
5877;BME280;2964;42.144;24.730;2023-11-19T01:06:31;143371.38;;;7.12;76.07
5877;BME280;2964;42.144;24.730;2023-11-19T01:08:58;143370.13;;;7.12;76.39
5877;BME280;2964;42.144;24.730;2023-11-19T01:11:26;143421.47;;;7.33;75.69
5877;BME280;2964;42.144;24.730;2023-11-19T01:13:54;143391.38;;;7.21;75.79
5877;BME280;2964;42.144;24.730;2023-11-19T01:16:20;143380.13;;;7.16;75.95
5877;BME280;2964;42.144;24.730;2023-11-19T01:18:49;143418.94;;;7.32;76.11
5877;BME280;2964;42.144;24.730;2023-11-19T01:21:16;143405.16;;;7.26;76.37
5877;BME280;2964;42.144;24.730;2023-11-19T01:23:43;143412.69;;;7.29;75.91
5877;BME280;2964;42.144;24.730;2023-11-19T01:26:10;143411.44;;;7.29;75.80
5877;BME280;2964;42.144;24.730;2023-11-19T01:28:37;143415.22;;;7.30;76.07
5877;BME280;2964;42.144;24.730;2023-11-19T01:31:10;143365.06;;;7.10;76.60
5877;BME280;2964;42.144;24.730;2023-11-19T01:33:38;143378.84;;;7.15;76.20
5877;BME280;2964;42.144;24.730;2023-11-19T01:36:07;143373.84;;;7.13;76.45
5877;BME280;2964;42.144;24.730;2023-11-19T01:38:34;143368.84;;;7.11;76.52
5877;BME280;2964;42.144;24.730;2023-11-19T01:41:00;143368.84;;;7.11;76.67
5877;BME280;2964;42.144;24.730;2023-11-19T01:43:34;143405.16;;;7.26;75.95
5877;BME280;2964;42.144;24.730;2023-11-19T01:46:00;143378.84;;;7.15;76.65
5877;BME280;2964;42.144;24.730;2023-11-19T01:48:27;143391.38;;;7.21;76.36
5877;BME280;2964;42.144;24.730;2023-11-19T01:50:55;143403.91;;;7.26;76.40
5877;BME280;2964;42.144;24.730;2023-11-19T01:53:24;143382.63;;;7.17;76.73
5877;BME280;2964;42.144;24.730;2023-11-19T01:55:51;143328.75;;;6.95;76.86
5877;BME280;2964;42.144;24.730;2023-11-19T01:58:19;143328.75;;;6.95;77.37
5877;BME280;2964;42.144;24.730;2023-11-19T02:00:46;143366.34;;;7.10;77.07
5877;BME280;2964;42.144;24.730;2023-11-19T02:03:14;143406.44;;;7.27;76.66
5877;BME280;2964;42.144;24.730;2023-11-19T02:05:40;143370.13;;;7.12;77.28
5877;BME280;2964;42.144;24.730;2023-11-19T02:08:06;143375.13;;;7.14;76.58
5877;BME280;2964;42.144;24.730;2023-11-19T02:10:35;143358.81;;;7.07;76.46
5877;BME280;2964;42.144;24.730;2023-11-19T02:13:01;143358.81;;;7.07;77.00
5877;BME280;2964;42.144;24.730;2023-11-19T02:15:30;143375.13;;;7.14;76.37
5877;BME280;2964;42.144;24.730;2023-11-19T02:17:57;143373.84;;;7.13;76.72
5877;BME280;2964;42.144;24.730;2023-11-19T02:20:43;143381.38;;;7.17;76.71
5877;BME280;2964;42.144;24.730;2023-11-19T02:23:10;143378.84;;;7.15;76.87
5877;BME280;2964;42.144;24.730;2023-11-19T02:25:38;143367.59;;;7.11;76.91
5877;BME280;2964;42.144;24.730;2023-11-19T02:28:07;143322.50;;;6.92;77.58
5877;BME280;2964;42.144;24.730;2023-11-19T02:30:37;143317.50;;;6.90;77.07
5877;BME280;2964;42.144;24.730;2023-11-19T02:33:04;143330.03;;;6.95;77.65
5877;BME280;2964;42.144;24.730;2023-11-19T02:35:32;143347.59;;;7.03;77.28
5877;BME280;2964;42.144;24.730;2023-11-19T02:37:59;143318.75;;;6.91;77.31
5877;BME280;2964;42.144;24.730;2023-11-19T02:40:26;143286.19;;;6.78;77.18
5877;BME280;2964;42.144;24.730;2023-11-19T02:42:53;143326.28;;;6.94;76.79
5877;BME280;2964;42.144;24.730;2023-11-19T02:45:23;143326.28;;;6.94;77.29
5877;BME280;2964;42.144;24.730;2023-11-19T02:47:50;143346.28;;;7.02;76.79
5877;BME280;2964;42.144;24.730;2023-11-19T02:50:17;143372.59;;;7.13;76.28
5877;BME280;2964;42.144;24.730;2023-11-19T02:52:51;143366.34;;;7.10;76.82
5877;BME280;2964;42.144;24.730;2023-11-19T02:55:18;143337.53;;;6.99;77.17
5877;BME280;2964;42.144;24.730;2023-11-19T02:57:45;143358.81;;;7.07;76.63
5877;BME280;2964;42.144;24.730;2023-11-19T03:00:15;143340.06;;;7.00;77.03
5877;BME280;2964;42.144;24.730;2023-11-19T03:02:44;143368.84;;;7.11;76.19
5877;BME280;2964;42.144;24.730;2023-11-19T03:05:12;143383.91;;;7.18;76.03
5877;BME280;2964;42.144;24.730;2023-11-19T03:07:40;143355.06;;;7.06;76.37
5877;BME280;2964;42.144;24.730;2023-11-19T03:10:08;143345.06;;;7.02;76.71
5877;BME280;2964;42.144;24.730;2023-11-19T03:12:38;143361.34;;;7.08;76.16
5877;BME280;2964;42.144;24.730;2023-11-19T03:15:06;143351.28;;;7.04;76.38
5877;BME280;2964;42.144;24.730;2023-11-19T03:17:35;143340.06;;;7.00;76.63
5877;BME280;2964;42.144;24.730;2023-11-19T03:20:04;143325.03;;;6.93;76.95
5877;BME280;2964;42.144;24.730;2023-11-19T03:22:32;143318.75;;;6.91;77.21
5877;BME280;2964;42.144;24.730;2023-11-19T03:25:00;143291.19;;;6.80;76.91
5877;BME280;2964;42.144;24.730;2023-11-19T03:27:26;143311.22;;;6.88;77.42
5877;BME280;2964;42.144;24.730;2023-11-19T03:29:53;143286.19;;;6.78;77.77
5877;BME280;2964;42.144;24.730;2023-11-19T03:32:20;143286.19;;;6.78;78.33
5877;BME280;2964;42.144;24.730;2023-11-19T03:34:46;143191.06;;;6.38;78.09
5877;BME280;2964;42.144;24.730;2023-11-19T03:37:14;143247.38;;;6.62;79.27
5877;BME280;2964;42.144;24.730;2023-11-19T03:39:42;143244.88;;;6.61;78.88
5877;BME280;2964;42.144;24.730;2023-11-19T03:42:09;143273.66;;;6.72;79.10
5877;BME280;2964;42.144;24.730;2023-11-19T03:44:37;143236.13;;;6.57;78.99
5877;BME280;2964;42.144;24.730;2023-11-19T03:47:04;143256.13;;;6.65;78.78
5877;BME280;2964;42.144;24.730;2023-11-19T03:49:31;143258.66;;;6.66;79.22
5877;BME280;2964;42.144;24.730;2023-11-19T03:51:58;143286.19;;;6.78;78.33
5877;BME280;2964;42.144;24.730;2023-11-19T03:54:26;143266.13;;;6.69;78.54
5877;BME280;2964;42.144;24.730;2023-11-19T03:56:53;143248.66;;;6.62;78.53
5877;BME280;2964;42.144;24.730;2023-11-19T03:59:19;143244.88;;;6.61;77.74
5877;BME280;2964;42.144;24.730;2023-11-19T04:01:46;143278.69;;;6.74;77.46
5877;BME280;2964;42.144;24.730;2023-11-19T04:04:13;143252.38;;;6.64;77.35
5877;BME280;2964;42.144;24.730;2023-11-19T04:06:40;143259.91;;;6.67;77.18
5877;BME280;2964;42.144;24.730;2023-11-19T04:09:07;143276.19;;;6.73;76.68
5877;BME280;2964;42.144;24.730;2023-11-19T04:11:35;143296.22;;;6.82;76.68
5877;BME280;2964;42.144;24.730;2023-11-19T04:14:02;143318.75;;;6.91;75.76
5877;BME280;2964;42.144;24.730;2023-11-19T04:16:29;143271.19;;;6.71;76.12
5877;BME280;2964;42.144;24.730;2023-11-19T04:18:55;143289.97;;;6.79;75.58
5877;BME280;2964;42.144;24.730;2023-11-19T04:21:22;143301.22;;;6.84;75.62
5877;BME280;2964;42.144;24.730;2023-11-19T04:23:49;143311.22;;;6.88;75.53
5877;BME280;2964;42.144;24.730;2023-11-19T04:26:16;143294.97;;;6.81;75.48
5877;BME280;2964;42.144;24.730;2023-11-19T04:28:44;143276.19;;;6.73;74.85
5877;BME280;2964;42.144;24.730;2023-11-19T04:31:10;143178.53;;;6.33;75.48
5877;BME280;2964;42.144;24.730;2023-11-19T04:33:37;143256.13;;;6.65;75.60
5877;BME280;2964;42.144;24.730;2023-11-19T04:36:05;143274.91;;;6.73;75.72
5877;BME280;2964;42.144;24.730;2023-11-19T04:38:32;143273.66;;;6.72;76.51
5877;BME280;2964;42.144;24.730;2023-11-19T04:41:00;143248.66;;;6.62;76.40
5877;BME280;2964;42.144;24.730;2023-11-19T04:43:26;143237.38;;;6.57;77.10
5877;BME280;2964;42.144;24.730;2023-11-19T04:45:54;143206.06;;;6.45;78.41
5877;BME280;2964;42.144;24.730;2023-11-19T04:48:21;143176.00;;;6.32;78.55
5877;BME280;2964;42.144;24.730;2023-11-19T04:50:47;143174.78;;;6.32;78.23
5877;BME280;2964;42.144;24.730;2023-11-19T04:53:13;143198.53;;;6.42;77.85
5877;BME280;2964;42.144;24.730;2023-11-19T04:55:41;143186.06;;;6.36;78.43
5877;BME280;2964;42.144;24.730;2023-11-19T04:58:07;143161.00;;;6.26;78.41
5877;BME280;2964;42.144;24.730;2023-11-19T05:00:34;143173.53;;;6.31;78.18
5877;BME280;2964;42.144;24.730;2023-11-19T05:03:02;143152.25;;;6.23;78.53
5877;BME280;2964;42.144;24.730;2023-11-19T05:05:29;143144.72;;;6.19;78.34
5877;BME280;2964;42.144;24.730;2023-11-19T05:07:56;143141.00;;;6.18;77.92
5877;BME280;2964;42.144;24.730;2023-11-19T05:10:22;143134.72;;;6.15;78.55
5877;BME280;2964;42.144;24.730;2023-11-19T05:12:50;143133.47;;;6.15;78.41
5877;BME280;2964;42.144;24.730;2023-11-19T05:15:17;143115.94;;;6.08;78.15
5877;BME280;2964;42.144;24.730;2023-11-19T05:17:43;143168.53;;;6.29;77.74
5877;BME280;2964;42.144;24.730;2023-11-19T05:20:12;143163.53;;;6.27;77.76
5877;BME280;2964;42.144;24.730;2023-11-19T05:22:39;143105.94;;;6.04;78.29
5877;BME280;2964;42.144;24.730;2023-11-19T05:25:07;143128.47;;;6.13;77.87
5877;BME280;2964;42.144;24.730;2023-11-19T05:27:34;143024.56;;;5.70;77.98
5877;BME280;2964;42.144;24.730;2023-11-19T05:30:01;143112.19;;;6.06;78.51
5877;BME280;2964;42.144;24.730;2023-11-19T05:32:28;143124.72;;;6.11;78.62
5877;BME280;2964;42.144;24.730;2023-11-19T05:34:55;143093.44;;;5.98;79.03
5877;BME280;2964;42.144;24.730;2023-11-19T05:37:23;143115.94;;;6.08;78.73
5877;BME280;2964;42.144;24.730;2023-11-19T05:39:50;143103.44;;;6.03;78.51
5877;BME280;2964;42.144;24.730;2023-11-19T05:42:17;143084.63;;;5.95;78.97
5877;BME280;2964;42.144;24.730;2023-11-19T05:44:44;143115.94;;;6.08;78.31
5877;BME280;2964;42.144;24.730;2023-11-19T05:47:11;143085.91;;;5.95;78.51
5877;BME280;2964;42.144;24.730;2023-11-19T05:49:38;143108.44;;;6.05;78.72
5877;BME280;2964;42.144;24.730;2023-11-19T05:52:05;143084.63;;;5.95;78.68
5877;BME280;2964;42.144;24.730;2023-11-19T05:54:34;143095.94;;;5.99;77.83
5877;BME280;2964;42.144;24.730;2023-11-19T05:57:04;143135.94;;;6.16;77.62
5877;BME280;2964;42.144;24.730;2023-11-19T05:59:30;143135.94;;;6.16;77.83
5877;BME280;2964;42.144;24.730;2023-11-19T06:01:58;143158.47;;;6.25;76.61
5877;BME280;2964;42.144;24.730;2023-11-19T06:04:25;143202.31;;;6.43;76.15
5877;BME280;2964;42.144;24.730;2023-11-19T06:06:52;143154.75;;;6.24;76.40
5877;BME280;2964;42.144;24.730;2023-11-19T06:09:20;143181.06;;;6.34;77.02
5877;BME280;2964;42.144;24.730;2023-11-19T06:11:50;143187.28;;;6.37;76.74
5877;BME280;2964;42.144;24.730;2023-11-19T06:14:17;143207.31;;;6.45;77.14
5877;BME280;2964;42.144;24.730;2023-11-19T06:16:44;143191.06;;;6.38;77.27
5877;BME280;2964;42.144;24.730;2023-11-19T06:19:11;143218.59;;;6.50;76.78
5877;BME280;2964;42.144;24.730;2023-11-19T06:21:38;143218.59;;;6.50;76.71
5877;BME280;2964;42.144;24.730;2023-11-19T06:24:05;143234.84;;;6.56;76.29
5877;BME280;2964;42.144;24.730;2023-11-19T06:26:32;143223.59;;;6.52;76.50
5877;BME280;2964;42.144;24.730;2023-11-19T06:29:00;143227.34;;;6.53;76.39
5877;BME280;2964;42.144;24.730;2023-11-19T06:31:26;143273.66;;;6.72;76.04
5877;BME280;2964;42.144;24.730;2023-11-19T06:33:57;143289.97;;;6.79;75.39
5877;BME280;2964;42.144;24.730;2023-11-19T06:36:24;143292.44;;;6.80;75.35
5877;BME280;2964;42.144;24.730;2023-11-19T06:38:52;143325.03;;;6.93;75.18
5877;BME280;2964;42.144;24.730;2023-11-19T06:41:18;143286.19;;;6.78;74.24
5877;BME280;2964;42.144;24.730;2023-11-19T06:43:45;143328.75;;;6.95;74.13
5877;BME280;2964;42.144;24.730;2023-11-19T06:46:17;143343.81;;;7.01;74.11
5877;BME280;2964;42.144;24.730;2023-11-19T06:48:44;143363.84;;;7.09;74.20
5877;BME280;2964;42.144;24.730;2023-11-19T06:51:10;143363.84;;;7.09;74.51
5877;BME280;2964;42.144;24.730;2023-11-19T06:53:37;143366.34;;;7.10;74.13
5877;BME280;2964;42.144;24.730;2023-11-19T06:56:05;143383.91;;;7.18;73.95
5877;BME280;2964;42.144;24.730;2023-11-19T06:58:35;143403.91;;;7.26;74.08
5877;BME280;2964;42.144;24.730;2023-11-19T07:01:02;143408.94;;;7.28;74.37
5877;BME280;2964;42.144;24.730;2023-11-19T07:03:31;143416.47;;;7.31;73.69
5877;BME280;2964;42.144;24.730;2023-11-19T07:06:00;143434.00;;;7.38;73.58
5877;BME280;2964;42.144;24.730;2023-11-19T07:08:30;143467.81;;;7.52;73.37
5877;BME280;2964;42.144;24.730;2023-11-19T07:10:57;143479.09;;;7.57;73.12
5877;BME280;2964;42.144;24.730;2023-11-19T07:13:24;143536.75;;;7.80;72.22
5877;BME280;2964;42.144;24.730;2023-11-19T07:15:53;143560.56;;;7.90;71.71
5877;BME280;2964;42.144;24.730;2023-11-19T07:18:20;143613.22;;;8.11;70.93
5877;BME280;2964;42.144;24.730;2023-11-19T07:20:48;143694.75;;;8.45;69.41
5877;BME280;2964;42.144;24.730;2023-11-19T07:23:15;143629.47;;;8.18;70.22
5877;BME280;2964;42.144;24.730;2023-11-19T07:25:42;143657.06;;;8.29;70.19
5877;BME280;2964;42.144;24.730;2023-11-19T07:28:10;143594.38;;;8.04;71.24
5877;BME280;2964;42.144;24.730;2023-11-19T07:30:38;143604.44;;;8.08;71.02
5877;BME280;2964;42.144;24.730;2023-11-19T07:33:03;143639.50;;;8.22;70.33
5877;BME280;2964;42.144;24.730;2023-11-19T07:35:31;143660.81;;;8.31;69.62
5877;BME280;2964;42.144;24.730;2023-11-19T07:37:59;143649.56;;;8.26;69.07
5877;BME280;2964;42.144;24.730;2023-11-19T07:40:25;143652.06;;;8.27;69.08
5877;BME280;2964;42.144;24.730;2023-11-19T07:42:52;143679.63;;;8.39;68.84
5877;BME280;2964;42.144;24.730;2023-11-19T07:45:19;143704.78;;;8.49;67.73
5877;BME280;2964;42.144;24.730;2023-11-19T07:47:46;143674.63;;;8.37;68.43
5877;BME280;2964;42.144;24.730;2023-11-19T07:50:13;143702.25;;;8.48;67.76
5877;BME280;2964;42.144;24.730;2023-11-19T07:52:42;143680.91;;;8.39;67.72
5877;BME280;2964;42.144;24.730;2023-11-19T07:55:10;143709.78;;;8.51;67.71
5877;BME280;2964;42.144;24.730;2023-11-19T07:57:37;143739.91;;;8.63;67.51
5877;BME280;2964;42.144;24.730;2023-11-19T08:00:05;143736.13;;;8.62;66.65
5877;BME280;2964;42.144;24.730;2023-11-19T08:02:32;143696.00;;;8.45;67.65
5877;BME280;2964;42.144;24.730;2023-11-19T08:04:58;143739.91;;;8.63;67.08
5877;BME280;2964;42.144;24.730;2023-11-19T08:07:25;143716.03;;;8.54;67.78
5877;BME280;2964;42.144;24.730;2023-11-19T08:09:52;143670.84;;;8.35;67.02
5877;BME280;2964;42.144;24.730;2023-11-19T08:12:20;143754.94;;;8.69;67.41
5877;BME280;2964;42.144;24.730;2023-11-19T08:14:47;143742.38;;;8.64;67.32
5877;BME280;2964;42.144;24.730;2023-11-19T08:17:14;143736.13;;;8.62;66.62
5877;BME280;2964;42.144;24.730;2023-11-19T08:19:41;143687.22;;;8.42;67.21
5877;BME280;2964;42.144;24.730;2023-11-19T08:22:08;143699.75;;;8.47;66.99
5877;BME280;2964;42.144;24.730;2023-11-19T08:24:35;143675.84;;;8.37;67.11
5877;BME280;2964;42.144;24.730;2023-11-19T08:27:02;143679.63;;;8.39;67.27
5877;BME280;2964;42.144;24.730;2023-11-19T08:29:30;143692.22;;;8.44;67.27
5877;BME280;2964;42.144;24.730;2023-11-19T08:31:57;143699.75;;;8.47;67.17
5877;BME280;2964;42.144;24.730;2023-11-19T08:34:23;143719.81;;;8.55;66.91
5877;BME280;2964;42.144;24.730;2023-11-19T08:36:51;143734.88;;;8.61;66.57
5877;BME280;2964;42.144;24.730;2023-11-19T08:39:18;143719.81;;;8.55;66.83
5877;BME280;2964;42.144;24.730;2023-11-19T08:41:46;143727.34;;;8.58;67.33
5877;BME280;2964;42.144;24.730;2023-11-19T08:44:13;143678.38;;;8.38;67.42
5877;BME280;2964;42.144;24.730;2023-11-19T08:46:47;143677.16;;;8.38;67.76
5877;BME280;2964;42.144;24.730;2023-11-19T08:49:14;143701.00;;;8.47;67.11
5877;BME280;2964;42.144;24.730;2023-11-19T08:51:41;143837.69;;;9.03;65.73
5877;BME280;2964;42.144;24.730;2023-11-19T08:54:08;143837.69;;;9.03;64.96
5877;BME280;2964;42.144;24.730;2023-11-19T08:56:34;143721.03;;;8.56;65.60
5877;BME280;2964;42.144;24.730;2023-11-19T08:59:01;143707.25;;;8.50;66.35
5877;BME280;2964;42.144;24.730;2023-11-19T09:01:28;143872.84;;;9.18;65.23
5877;BME280;2964;42.144;24.730;2023-11-19T09:03:56;143953.16;;;9.51;63.56
5877;BME280;2964;42.144;24.730;2023-11-19T09:06:23;144008.38;;;9.73;61.44
5877;BME280;2964;42.144;24.730;2023-11-19T09:08:50;144304.81;;;10.94;59.64
5877;BME280;2964;42.144;24.730;2023-11-19T09:11:16;144302.28;;;10.93;57.46
5877;BME280;2964;42.144;24.730;2023-11-19T09:13:43;144485.78;;;11.68;55.80
5877;BME280;2964;42.144;24.730;2023-11-19T09:16:11;144869.50;;;13.25;53.04
5877;BME280;2964;42.144;24.730;2023-11-19T09:18:38;144807.81;;;13.00;51.92
5877;BME280;2964;42.144;24.730;2023-11-19T09:21:06;144577.59;;;12.06;52.94
5877;BME280;2964;42.144;24.730;2023-11-19T09:23:33;145069.75;;;14.06;49.63
5877;BME280;2964;42.144;24.730;2023-11-19T09:26:04;145059.69;;;14.02;48.36
5877;BME280;2964;42.144;24.730;2023-11-19T09:28:31;145084.84;;;14.13;47.23
5877;BME280;2964;42.144;24.730;2023-11-19T09:30:58;145166.78;;;14.46;44.83
5877;BME280;2964;42.144;24.730;2023-11-19T09:33:25;145294.09;;;14.98;43.91
5877;BME280;2964;42.144;24.730;2023-11-19T09:35:52;145427.72;;;15.52;40.88
5877;BME280;2964;42.144;24.730;2023-11-19T09:38:20;145449.16;;;15.61;41.30
5877;BME280;2964;42.144;24.730;2023-11-19T09:40:46;145328.09;;;15.12;41.32
5877;BME280;2964;42.144;24.730;2023-11-19T09:43:14;145672.47;;;16.52;38.48
5877;BME280;2964;42.144;24.730;2023-11-19T09:45:48;145697.72;;;16.62;38.16
5877;BME280;2964;42.144;24.730;2023-11-19T09:48:16;145175.56;;;14.49;40.17
5877;BME280;2964;42.144;24.730;2023-11-19T09:50:44;144883.41;;;13.30;42.76
5877;BME280;2964;42.144;24.730;2023-11-19T09:53:11;144845.63;;;13.15;43.35
5877;BME280;2964;42.144;24.730;2023-11-19T09:55:39;144449.34;;;11.53;47.22
5877;BME280;2964;42.144;24.730;2023-11-19T09:58:06;144312.34;;;10.97;48.63
5877;BME280;2964;42.144;24.730;2023-11-19T10:00:33;144084.94;;;10.04;50.65
5877;BME280;2964;42.144;24.730;2023-11-19T10:03:00;144049.78;;;9.90;51.83
5877;BME280;2964;42.144;24.730;2023-11-19T10:05:30;144023.47;;;9.79;51.82
5877;BME280;2964;42.144;24.730;2023-11-19T10:07:57;144010.91;;;9.74;51.96
5877;BME280;2964;42.144;24.730;2023-11-19T10:10:24;143950.63;;;9.50;52.98
5877;BME280;2964;42.144;24.730;2023-11-19T10:12:52;143951.91;;;9.50;52.98
5877;BME280;2964;42.144;24.730;2023-11-19T10:15:21;143956.94;;;9.52;53.31
5877;BME280;2964;42.144;24.730;2023-11-19T10:17:49;143880.38;;;9.21;53.86
5877;BME280;2964;42.144;24.730;2023-11-19T10:20:16;143906.75;;;9.32;54.13
5877;BME280;2964;42.144;24.730;2023-11-19T10:22:43;143871.59;;;9.17;53.22
5877;BME280;2964;42.144;24.730;2023-11-19T10:25:22;143860.28;;;9.13;53.79
5877;BME280;2964;42.144;24.730;2023-11-19T10:27:49;143895.41;;;9.27;53.92
5877;BME280;2964;42.144;24.730;2023-11-19T10:30:20;143914.22;;;9.35;54.65
5877;BME280;2964;42.144;24.730;2023-11-19T10:33:03;143933.03;;;9.42;54.36
5877;BME280;2964;42.144;24.730;2023-11-19T10:35:30;143930.56;;;9.41;54.08
5877;BME280;2964;42.144;24.730;2023-11-19T10:37:59;143918.00;;;9.36;53.58
5877;BME280;2964;42.144;24.730;2023-11-19T10:40:37;143886.63;;;9.23;54.01
5877;BME280;2964;42.144;24.730;2023-11-19T10:43:05;143880.38;;;9.21;53.67
5877;BME280;2964;42.144;24.730;2023-11-19T10:45:34;143889.16;;;9.24;54.19
5877;BME280;2964;42.144;24.730;2023-11-19T10:48:03;143887.88;;;9.24;54.17
5877;BME280;2964;42.144;24.730;2023-11-19T10:50:32;143921.78;;;9.38;53.88
5877;BME280;2964;42.144;24.730;2023-11-19T10:52:59;143886.63;;;9.23;53.84
5877;BME280;2964;42.144;24.730;2023-11-19T10:55:27;143921.78;;;9.38;53.86
5877;BME280;2964;42.144;24.730;2023-11-19T10:57:59;143905.44;;;9.31;53.79
5877;BME280;2964;42.144;24.730;2023-11-19T11:00:26;143914.22;;;9.35;53.75
5877;BME280;2964;42.144;24.730;2023-11-19T11:03:00;143926.78;;;9.40;53.09
5877;BME280;2964;42.144;24.730;2023-11-19T11:05:27;143907.97;;;9.32;52.73
5877;BME280;2964;42.144;24.730;2023-11-19T11:07:55;143918.00;;;9.36;52.70
5877;BME280;2964;42.144;24.730;2023-11-19T11:10:25;143928.03;;;9.40;52.87
5877;BME280;2964;42.144;24.730;2023-11-19T11:12:52;143949.38;;;9.49;53.02
5877;BME280;2964;42.144;24.730;2023-11-19T11:15:27;143948.13;;;9.49;53.00
5877;BME280;2964;42.144;24.730;2023-11-19T11:17:59;143938.09;;;9.44;52.47
5877;BME280;2964;42.144;24.730;2023-11-19T11:20:27;143945.59;;;9.47;52.61
5877;BME280;2964;42.144;24.730;2023-11-19T11:23:06;143939.34;;;9.45;52.95
5877;BME280;2964;42.144;24.730;2023-11-19T11:25:45;143988.31;;;9.65;52.97
5877;BME280;2964;42.144;24.730;2023-11-19T11:28:24;143989.53;;;9.65;53.18
5877;BME280;2964;42.144;24.730;2023-11-19T11:31:07;143943.13;;;9.46;52.69
5877;BME280;2964;42.144;24.730;2023-11-19T11:33:48;143998.34;;;9.69;52.66
5877;BME280;2964;42.144;24.730;2023-11-19T11:36:24;143979.50;;;9.61;52.55
5877;BME280;2964;42.144;24.730;2023-11-19T11:38:52;143990.78;;;9.66;51.60
5877;BME280;2964;42.144;24.730;2023-11-19T11:41:20;144007.13;;;9.73;51.85
5877;BME280;2964;42.144;24.730;2023-11-19T11:43:49;144009.59;;;9.74;52.27
5877;BME280;2964;42.144;24.730;2023-11-19T11:46:54;144030.97;;;9.82;51.57
5877;BME280;2964;42.144;24.730;2023-11-19T11:49:30;144000.88;;;9.70;52.18
5877;BME280;2964;42.144;24.730;2023-11-19T11:51:58;144008.38;;;9.73;51.90
5877;BME280;2964;42.144;24.730;2023-11-19T11:54:26;144003.34;;;9.71;51.81
5877;BME280;2964;42.144;24.730;2023-11-19T11:57:02;143993.31;;;9.67;51.70
5877;BME280;2964;42.144;24.730;2023-11-19T11:59:36;143990.78;;;9.66;51.99
5877;BME280;2964;42.144;24.730;2023-11-19T12:02:03;143989.53;;;9.65;51.50
5877;BME280;2964;42.144;24.730;2023-11-19T12:04:31;143980.75;;;9.62;51.92
5877;BME280;2964;42.144;24.730;2023-11-19T12:07:04;143965.72;;;9.56;52.36
5877;BME280;2964;42.144;24.730;2023-11-19T12:09:32;143954.41;;;9.51;52.42
5877;BME280;2964;42.144;24.730;2023-11-19T12:12:26;143984.53;;;9.63;52.16
5877;BME280;2964;42.144;24.730;2023-11-19T12:15:04;144014.66;;;9.76;51.57
5877;BME280;2964;42.144;24.730;2023-11-19T12:17:52;144000.88;;;9.70;51.59
5877;BME280;2964;42.144;24.730;2023-11-19T12:20:21;144008.38;;;9.73;51.70
5877;BME280;2964;42.144;24.730;2023-11-19T12:22:49;143971.97;;;9.58;52.37
5877;BME280;2964;42.144;24.730;2023-11-19T12:25:17;144002.09;;;9.71;52.11
5877;BME280;2964;42.144;24.730;2023-11-19T12:27:46;143989.53;;;9.65;52.27
5877;BME280;2964;42.144;24.730;2023-11-19T12:30:17;143994.56;;;9.68;52.33
5877;BME280;2964;42.144;24.730;2023-11-19T12:32:45;143988.31;;;9.65;52.72
5877;BME280;2964;42.144;24.730;2023-11-19T12:35:12;143984.53;;;9.63;53.03
5877;BME280;2964;42.144;24.730;2023-11-19T12:37:45;143964.44;;;9.55;53.15
5877;BME280;2964;42.144;24.730;2023-11-19T12:40:14;143960.69;;;9.54;53.58
5877;BME280;2964;42.144;24.730;2023-11-19T12:42:41;143971.97;;;9.58;53.69
5877;BME280;2964;42.144;24.730;2023-11-19T12:45:08;143989.53;;;9.65;53.34
5877;BME280;2964;42.144;24.730;2023-11-19T12:47:38;143997.09;;;9.69;53.65
5877;BME280;2964;42.144;24.730;2023-11-19T12:50:05;143861.56;;;9.13;53.39
5877;BME280;2964;42.144;24.730;2023-11-19T12:52:33;143943.13;;;9.46;53.77
5877;BME280;2964;42.144;24.730;2023-11-19T12:55:02;143929.31;;;9.41;54.46
5877;BME280;2964;42.144;24.730;2023-11-19T12:57:39;143973.22;;;9.59;53.59
5877;BME280;2964;42.144;24.730;2023-11-19T13:00:07;143966.94;;;9.56;53.71
5877;BME280;2964;42.144;24.730;2023-11-19T13:02:46;143948.13;;;9.49;53.58
5877;BME280;2964;42.144;24.730;2023-11-19T13:05:30;143941.84;;;9.46;53.67
5877;BME280;2964;42.144;24.730;2023-11-19T13:07:59;143949.38;;;9.49;54.11
5877;BME280;2964;42.144;24.730;2023-11-19T13:10:27;143925.53;;;9.39;53.70
5877;BME280;2964;42.144;24.730;2023-11-19T13:13:02;143948.13;;;9.49;54.25
5877;BME280;2964;42.144;24.730;2023-11-19T13:15:29;143923.00;;;9.38;53.94